Leonid Leonov — 9HNT8 — position and weather

sailwx.info

Track history (hours):
 
Tides and Currents Weather Stations Pressure Air Temp Water Temp Dewpoint Dewpoint Depression Visibility Wind Speed Wind Dir Waves Ship Positions

Leonid Leonov

Last reported at 2014-Jun-30 03:18 UTC. Time now 2014-Oct-21 11:54 UTC.
Position N 46°19' E 030°40'.
Warning: this ship's position is months out of date.

Length 89 m; draft 3.1 m.

Type: Cargo ship. MMSI: 256197000.

Date/timePositionNaut miles runAvg speedWind from/ knotsBaromVisibWave heightAir tempDewpointWater temp
2014-Jun-30 03:18N 46°19' E 030°40'12 6.9
2014-Jun-30 01:33N 46°16' E 030°57'  
2014-Jun-27 17:33N 40°57' E 028°60'4 3.8
2014-Jun-27 16:33N 40°57' E 028°55'34 1.5
2014-Jun-26 17:33N 41°26' E 029°19'1 0.7
2014-Jun-26 16:33N 41°26' E 029°20'1 0.8
2014-Jun-26 15:34N 41°26' E 029°19'1 0.5
2014-Jun-26 14:34N 41°25' E 029°18'5 5.2
2014-Jun-26 13:34N 41°21' E 029°23'5 4.7
2014-Jun-26 12:34N 41°17' E 029°26'1 0.9
2014-Jun-26 11:34N 41°18' E 029°26'1 1.1
2014-Jun-26 10:34N 41°19' E 029°26'1 1.1
2014-Jun-26 09:34N 41°20' E 029°25'1 1.2
2014-Jun-26 08:34N 41°21' E 029°24'3 3.4
2014-Jun-26 07:33N 41°21' E 029°29'  
Track history (hours):
 
Tides and Currents Weather Stations Pressure Air Temp Water Temp Dewpoint Dewpoint Depression Visibility Wind Speed Wind Dir Waves Ship Positions

Leonid Leonov

Last reported at 2014-Jun-30 03:18 UTC. Time now 2014-Oct-21 11:54 UTC.
Position N 46°19' E 030°40'.
Warning: this ship's position is months out of date.

Length 89 m; draft 3.1 m.

Type: Cargo ship. MMSI: 256197000.

Date/timePositionNaut miles runAvg speedWind from/ knotsBaromVisibWave heightAir tempDewpointWater temp
2014-Jun-30 03:18N 46°19' E 030°40'12 6.9
2014-Jun-30 01:33N 46°16' E 030°57'  
2014-Jun-27 17:33N 40°57' E 028°60'4 3.8
2014-Jun-27 16:33N 40°57' E 028°55'34 1.5
2014-Jun-26 17:33N 41°26' E 029°19'1 0.7
2014-Jun-26 16:33N 41°26' E 029°20'1 0.8
2014-Jun-26 15:34N 41°26' E 029°19'1 0.5
2014-Jun-26 14:34N 41°25' E 029°18'5 5.2
2014-Jun-26 13:34N 41°21' E 029°23'5 4.7
2014-Jun-26 12:34N 41°17' E 029°26'1 0.9
2014-Jun-26 11:34N 41°18' E 029°26'1 1.1
2014-Jun-26 10:34N 41°19' E 029°26'1 1.1
2014-Jun-26 09:34N 41°20' E 029°25'1 1.2
2014-Jun-26 08:34N 41°21' E 029°24'3 3.4
2014-Jun-26 07:33N 41°21' E 029°29'  

Dump ship's entire track history